Search for airport 
image banner adimage banner adimage banner ad
image banner ad

KSEE - Gillespie Field

Located in San Diego/El Cajon, United States

ICAO - SEE, IATA -

Data provided by Airmate  

General information

Coordinates: N32°49'34" W116°58'21"
Elevation is 388 feet MSL.
Magnetic variation is 13° East
View others Airports in California

Operational data

Special qualification required
Current time UTC:
Current local time:
Weather
METAR: KSEE 151035Z AUTO 00000KT 10SM CLR 18/14 A2985 RMK AO2
View NOTAMs / SUP AIP / TFR affecting this airport [VIEW]
Communications frequencies: [VIEW]

Runways:

RWY identifierQFULength (ft)Width (ft)SurfaceLDA (ft)
09R102°273860ASPH
27L282°273860ASPH
09L102°5342100ASPH
27R282°5342100ASPH
17179°4145100ASPH
35359°4145100ASPH

Airport contact information

Address: San Diego/El Cajon United States

Other aviation service providers

Flight schools

Golden State Flying Club

Golden State Flying Club

California Flight Academy, Llc

California Flight Academy, Llc
info@flycfa.com+1(619)448-2212

Saa Flight Training

Saa Flight Training
info@scanavia.com+1(619)631-0323

American Aviation Academy

American Aviation Academy
info@flyaaa.com+1(619)448-9149

Plus One Flyers, Inc.

Plus One Flyers, Inc.

Take Flight San Diego

Take Flight San Diego

Fly The Wing Flight Training

Fly The Wing Flight Training
garry@FlyTheWing.com+1(619)512-3080

Pirate Aviation, Llc

Pirate Aviation, Llc

Sky Combat Ace

Sky Combat Ace

Satellite view of KSEE